sensor_id;sensor_type;location;lat;lon;timestamp;P1;durP1;ratioP1;P2;durP2;ratioP2
26181;SDS011;13927;51.534;11.866;2022-12-19T00:01:11;17.33;;;10.02;;
26181;SDS011;13927;51.534;11.866;2022-12-19T00:03:46;15.65;;;9.68;;
26181;SDS011;13927;51.534;11.866;2022-12-19T00:06:14;18.00;;;10.48;;
26181;SDS011;13927;51.534;11.866;2022-12-19T00:08:42;18.35;;;10.30;;
26181;SDS011;13927;51.534;11.866;2022-12-19T00:11:10;16.40;;;9.70;;
26181;SDS011;13927;51.534;11.866;2022-12-19T00:13:37;14.63;;;9.30;;
26181;SDS011;13927;51.534;11.866;2022-12-19T00:16:05;19.02;;;9.95;;
26181;SDS011;13927;51.534;11.866;2022-12-19T00:18:44;17.17;;;10.00;;
26181;SDS011;13927;51.534;11.866;2022-12-19T00:21:13;15.77;;;9.07;;
26181;SDS011;13927;51.534;11.866;2022-12-19T00:23:57;15.50;;;9.40;;
26181;SDS011;13927;51.534;11.866;2022-12-19T00:26:27;15.85;;;9.57;;
26181;SDS011;13927;51.534;11.866;2022-12-19T00:28:56;18.42;;;9.82;;
26181;SDS011;13927;51.534;11.866;2022-12-19T00:31:29;20.20;;;9.75;;
26181;SDS011;13927;51.534;11.866;2022-12-19T00:33:58;17.65;;;10.13;;
26181;SDS011;13927;51.534;11.866;2022-12-19T00:36:29;16.48;;;9.40;;
26181;SDS011;13927;51.534;11.866;2022-12-19T00:38:59;17.38;;;9.48;;
26181;SDS011;13927;51.534;11.866;2022-12-19T00:41:27;17.92;;;9.70;;
26181;SDS011;13927;51.534;11.866;2022-12-19T00:43:56;14.48;;;8.90;;
26181;SDS011;13927;51.534;11.866;2022-12-19T00:46:24;16.42;;;9.10;;
26181;SDS011;13927;51.534;11.866;2022-12-19T00:48:52;18.90;;;9.25;;
26181;SDS011;13927;51.534;11.866;2022-12-19T00:51:19;16.98;;;8.95;;
26181;SDS011;13927;51.534;11.866;2022-12-19T00:53:52;16.25;;;9.43;;
26181;SDS011;13927;51.534;11.866;2022-12-19T00:56:20;19.00;;;9.75;;
26181;SDS011;13927;51.534;11.866;2022-12-19T00:58:56;18.02;;;10.32;;
26181;SDS011;13927;51.534;11.866;2022-12-19T01:01:24;15.73;;;9.65;;
26181;SDS011;13927;51.534;11.866;2022-12-19T01:03:53;18.15;;;11.27;;
26181;SDS011;13927;51.534;11.866;2022-12-19T01:06:21;16.33;;;10.38;;
26181;SDS011;13927;51.534;11.866;2022-12-19T01:08:47;17.67;;;10.77;;
26181;SDS011;13927;51.534;11.866;2022-12-19T01:11:14;20.00;;;10.82;;
26181;SDS011;13927;51.534;11.866;2022-12-19T01:13:40;20.67;;;11.57;;
26181;SDS011;13927;51.534;11.866;2022-12-19T01:16:08;22.40;;;12.32;;
26181;SDS011;13927;51.534;11.866;2022-12-19T01:18:35;20.00;;;12.18;;
26181;SDS011;13927;51.534;11.866;2022-12-19T01:21:05;18.75;;;10.40;;
26181;SDS011;13927;51.534;11.866;2022-12-19T01:23:32;16.08;;;9.65;;
26181;SDS011;13927;51.534;11.866;2022-12-19T01:25:59;16.52;;;10.05;;
26181;SDS011;13927;51.534;11.866;2022-12-19T01:28:25;19.20;;;10.15;;
26181;SDS011;13927;51.534;11.866;2022-12-19T01:30:51;14.20;;;9.00;;
26181;SDS011;13927;51.534;11.866;2022-12-19T01:33:17;19.08;;;10.50;;
26181;SDS011;13927;51.534;11.866;2022-12-19T01:35:45;17.15;;;10.05;;
26181;SDS011;13927;51.534;11.866;2022-12-19T01:38:15;17.10;;;9.45;;
26181;SDS011;13927;51.534;11.866;2022-12-19T01:40:53;17.95;;;10.13;;
26181;SDS011;13927;51.534;11.866;2022-12-19T01:43:21;15.73;;;9.20;;
26181;SDS011;13927;51.534;11.866;2022-12-19T01:46:08;15.68;;;9.05;;
26181;SDS011;13927;51.534;11.866;2022-12-19T01:48:39;16.73;;;9.65;;
26181;SDS011;13927;51.534;11.866;2022-12-19T01:51:19;15.88;;;9.05;;
26181;SDS011;13927;51.534;11.866;2022-12-19T01:53:49;17.60;;;10.95;;
26181;SDS011;13927;51.534;11.866;2022-12-19T01:56:23;16.48;;;9.95;;
26181;SDS011;13927;51.534;11.866;2022-12-19T01:58:53;16.65;;;8.63;;
26181;SDS011;13927;51.534;11.866;2022-12-19T02:01:22;18.38;;;8.38;;
26181;SDS011;13927;51.534;11.866;2022-12-19T02:03:49;13.80;;;7.95;;
26181;SDS011;13927;51.534;11.866;2022-12-19T02:06:16;12.90;;;7.93;;
26181;SDS011;13927;51.534;11.866;2022-12-19T02:08:43;14.63;;;8.20;;
26181;SDS011;13927;51.534;11.866;2022-12-19T02:11:12;13.93;;;8.48;;
26181;SDS011;13927;51.534;11.866;2022-12-19T02:13:38;12.25;;;8.18;;
26181;SDS011;13927;51.534;11.866;2022-12-19T02:21:58;13.18;;;7.40;;
26181;SDS011;13927;51.534;11.866;2022-12-19T02:36:20;15.88;;;8.60;;
26181;SDS011;13927;51.534;11.866;2022-12-19T02:39:01;13.18;;;7.32;;
26181;SDS011;13927;51.534;11.866;2022-12-19T02:42:11;15.65;;;7.93;;
26181;SDS011;13927;51.534;11.866;2022-12-19T02:44:47;14.32;;;8.32;;
26181;SDS011;13927;51.534;11.866;2022-12-19T02:47:15;15.60;;;8.20;;
26181;SDS011;13927;51.534;11.866;2022-12-19T02:49:43;15.93;;;8.43;;
26181;SDS011;13927;51.534;11.866;2022-12-19T02:52:10;15.15;;;9.45;;
26181;SDS011;13927;51.534;11.866;2022-12-19T02:55:08;14.45;;;8.93;;
26181;SDS011;13927;51.534;11.866;2022-12-19T03:00:32;13.13;;;7.97;;
26181;SDS011;13927;51.534;11.866;2022-12-19T03:03:18;18.33;;;9.60;;
26181;SDS011;13927;51.534;11.866;2022-12-19T03:05:55;15.95;;;9.10;;
26181;SDS011;13927;51.534;11.866;2022-12-19T03:11:16;15.40;;;9.00;;
26181;SDS011;13927;51.534;11.866;2022-12-19T03:13:55;16.35;;;8.27;;
26181;SDS011;13927;51.534;11.866;2022-12-19T03:16:26;18.10;;;9.18;;
26181;SDS011;13927;51.534;11.866;2022-12-19T03:18:52;16.50;;;9.25;;
26181;SDS011;13927;51.534;11.866;2022-12-19T03:21:31;14.63;;;8.70;;
26181;SDS011;13927;51.534;11.866;2022-12-19T03:24:01;13.35;;;7.13;;
26181;SDS011;13927;51.534;11.866;2022-12-19T03:26:33;16.45;;;9.38;;
26181;SDS011;13927;51.534;11.866;2022-12-19T03:29:32;18.50;;;10.33;;
26181;SDS011;13927;51.534;11.866;2022-12-19T03:32:03;16.02;;;9.55;;
26181;SDS011;13927;51.534;11.866;2022-12-19T03:34:35;15.50;;;9.70;;
26181;SDS011;13927;51.534;11.866;2022-12-19T03:37:15;18.50;;;10.10;;
26181;SDS011;13927;51.534;11.866;2022-12-19T03:39:45;15.07;;;8.38;;
26181;SDS011;13927;51.534;11.866;2022-12-19T03:42:18;14.77;;;9.32;;
26181;SDS011;13927;51.534;11.866;2022-12-19T03:45:04;19.35;;;10.25;;
26181;SDS011;13927;51.534;11.866;2022-12-19T03:47:38;18.25;;;9.82;;
26181;SDS011;13927;51.534;11.866;2022-12-19T03:50:11;18.13;;;10.30;;
26181;SDS011;13927;51.534;11.866;2022-12-19T03:52:50;17.75;;;10.30;;
26181;SDS011;13927;51.534;11.866;2022-12-19T03:58:26;16.77;;;10.27;;
26181;SDS011;13927;51.534;11.866;2022-12-19T04:00:56;15.48;;;8.88;;
26181;SDS011;13927;51.534;11.866;2022-12-19T04:03:23;15.77;;;9.38;;
26181;SDS011;13927;51.534;11.866;2022-12-19T04:05:49;13.93;;;8.15;;
26181;SDS011;13927;51.534;11.866;2022-12-19T04:08:18;15.07;;;8.07;;
26181;SDS011;13927;51.534;11.866;2022-12-19T04:10:49;14.63;;;9.13;;
26181;SDS011;13927;51.534;11.866;2022-12-19T04:13:32;13.02;;;7.68;;
26181;SDS011;13927;51.534;11.866;2022-12-19T04:16:10;13.93;;;8.85;;
26181;SDS011;13927;51.534;11.866;2022-12-19T04:18:50;16.00;;;8.20;;
26181;SDS011;13927;51.534;11.866;2022-12-19T04:21:30;12.77;;;7.85;;
26181;SDS011;13927;51.534;11.866;2022-12-19T04:24:08;14.07;;;8.30;;
26181;SDS011;13927;51.534;11.866;2022-12-19T04:26:40;15.85;;;8.60;;
26181;SDS011;13927;51.534;11.866;2022-12-19T04:29:09;14.07;;;8.55;;
26181;SDS011;13927;51.534;11.866;2022-12-19T04:31:38;15.32;;;8.88;;
26181;SDS011;13927;51.534;11.866;2022-12-19T04:34:04;15.05;;;9.40;;
26181;SDS011;13927;51.534;11.866;2022-12-19T04:36:31;18.25;;;10.25;;
26181;SDS011;13927;51.534;11.866;2022-12-19T04:38:57;17.67;;;9.63;;
26181;SDS011;13927;51.534;11.866;2022-12-19T04:41:23;17.95;;;9.60;;
26181;SDS011;13927;51.534;11.866;2022-12-19T04:43:48;16.67;;;9.73;;
26181;SDS011;13927;51.534;11.866;2022-12-19T04:46:14;17.45;;;9.60;;
26181;SDS011;13927;51.534;11.866;2022-12-19T04:48:40;18.50;;;10.13;;
26181;SDS011;13927;51.534;11.866;2022-12-19T04:51:05;17.85;;;9.85;;
26181;SDS011;13927;51.534;11.866;2022-12-19T04:53:31;16.80;;;9.77;;
26181;SDS011;13927;51.534;11.866;2022-12-19T04:56:01;18.42;;;10.50;;
26181;SDS011;13927;51.534;11.866;2022-12-19T04:58:31;18.90;;;10.90;;
26181;SDS011;13927;51.534;11.866;2022-12-19T05:00:59;17.55;;;11.02;;
26181;SDS011;13927;51.534;11.866;2022-12-19T05:03:29;19.38;;;11.63;;
26181;SDS011;13927;51.534;11.866;2022-12-19T05:06:06;17.58;;;11.00;;
26181;SDS011;13927;51.534;11.866;2022-12-19T05:08:38;19.38;;;12.18;;
26181;SDS011;13927;51.534;11.866;2022-12-19T05:11:06;21.10;;;12.13;;
26181;SDS011;13927;51.534;11.866;2022-12-19T05:13:35;21.95;;;12.10;;
26181;SDS011;13927;51.534;11.866;2022-12-19T05:16:02;26.75;;;14.05;;
26181;SDS011;13927;51.534;11.866;2022-12-19T05:18:35;22.15;;;14.93;;
26181;SDS011;13927;51.534;11.866;2022-12-19T05:21:02;23.90;;;13.57;;
26181;SDS011;13927;51.534;11.866;2022-12-19T05:23:29;23.30;;;14.15;;
26181;SDS011;13927;51.534;11.866;2022-12-19T05:26:02;20.67;;;13.02;;
26181;SDS011;13927;51.534;11.866;2022-12-19T05:28:29;22.35;;;14.30;;
26181;SDS011;13927;51.534;11.866;2022-12-19T05:31:02;22.30;;;13.27;;
26181;SDS011;13927;51.534;11.866;2022-12-19T05:33:56;21.00;;;11.95;;
26181;SDS011;13927;51.534;11.866;2022-12-19T05:36:22;19.50;;;12.15;;
26181;SDS011;13927;51.534;11.866;2022-12-19T05:38:48;17.80;;;11.27;;
26181;SDS011;13927;51.534;11.866;2022-12-19T05:41:14;19.45;;;12.05;;
26181;SDS011;13927;51.534;11.866;2022-12-19T05:43:43;19.13;;;12.43;;
26181;SDS011;13927;51.534;11.866;2022-12-19T05:46:14;18.40;;;12.13;;
26181;SDS011;13927;51.534;11.866;2022-12-19T05:48:40;21.20;;;13.20;;
26181;SDS011;13927;51.534;11.866;2022-12-19T05:51:06;19.45;;;12.75;;
26181;SDS011;13927;51.534;11.866;2022-12-19T05:53:35;19.85;;;12.27;;
26181;SDS011;13927;51.534;11.866;2022-12-19T05:56:09;22.25;;;13.13;;
26181;SDS011;13927;51.534;11.866;2022-12-19T05:58:39;21.80;;;12.90;;
26181;SDS011;13927;51.534;11.866;2022-12-19T06:01:07;19.50;;;11.40;;
26181;SDS011;13927;51.534;11.866;2022-12-19T06:03:43;18.48;;;10.90;;
26181;SDS011;13927;51.534;11.866;2022-12-19T06:06:11;18.25;;;11.07;;
26181;SDS011;13927;51.534;11.866;2022-12-19T06:08:40;17.98;;;10.88;;
26181;SDS011;13927;51.534;11.866;2022-12-19T06:11:06;19.73;;;12.07;;
26181;SDS011;13927;51.534;11.866;2022-12-19T06:13:34;18.73;;;11.35;;
26181;SDS011;13927;51.534;11.866;2022-12-19T06:16:05;18.38;;;10.80;;
26181;SDS011;13927;51.534;11.866;2022-12-19T06:18:37;17.77;;;11.02;;
26181;SDS011;13927;51.534;11.866;2022-12-19T06:21:04;16.00;;;10.05;;
26181;SDS011;13927;51.534;11.866;2022-12-19T06:23:33;16.33;;;9.52;;
26181;SDS011;13927;51.534;11.866;2022-12-19T06:26:00;17.30;;;9.90;;
26181;SDS011;13927;51.534;11.866;2022-12-19T06:28:29;16.40;;;9.60;;
26181;SDS011;13927;51.534;11.866;2022-12-19T06:30:56;17.23;;;8.98;;
26181;SDS011;13927;51.534;11.866;2022-12-19T06:33:23;16.55;;;10.65;;
26181;SDS011;13927;51.534;11.866;2022-12-19T06:35:56;18.48;;;9.77;;
26181;SDS011;13927;51.534;11.866;2022-12-19T06:38:30;14.18;;;8.52;;
26181;SDS011;13927;51.534;11.866;2022-12-19T06:40:57;16.98;;;9.73;;
26181;SDS011;13927;51.534;11.866;2022-12-19T06:43:41;17.05;;;9.27;;
26181;SDS011;13927;51.534;11.866;2022-12-19T06:46:07;16.55;;;9.68;;
26181;SDS011;13927;51.534;11.866;2022-12-19T06:48:33;15.95;;;9.57;;
26181;SDS011;13927;51.534;11.866;2022-12-19T06:50:59;15.57;;;10.02;;
26181;SDS011;13927;51.534;11.866;2022-12-19T06:53:25;19.10;;;10.77;;
26181;SDS011;13927;51.534;11.866;2022-12-19T06:55:52;19.23;;;10.32;;
26181;SDS011;13927;51.534;11.866;2022-12-19T06:58:20;17.58;;;10.13;;
26181;SDS011;13927;51.534;11.866;2022-12-19T07:00:46;14.82;;;10.02;;
26181;SDS011;13927;51.534;11.866;2022-12-19T07:03:12;18.50;;;10.68;;
26181;SDS011;13927;51.534;11.866;2022-12-19T07:05:42;19.30;;;10.50;;
26181;SDS011;13927;51.534;11.866;2022-12-19T07:08:08;17.90;;;10.43;;
26181;SDS011;13927;51.534;11.866;2022-12-19T07:10:34;19.38;;;10.82;;
26181;SDS011;13927;51.534;11.866;2022-12-19T07:13:00;17.75;;;10.52;;
26181;SDS011;13927;51.534;11.866;2022-12-19T07:15:26;18.95;;;11.00;;
26181;SDS011;13927;51.534;11.866;2022-12-19T07:17:53;18.67;;;11.77;;
26181;SDS011;13927;51.534;11.866;2022-12-19T07:20:19;20.88;;;11.40;;
26181;SDS011;13927;51.534;11.866;2022-12-19T07:22:46;17.58;;;10.70;;
26181;SDS011;13927;51.534;11.866;2022-12-19T07:25:12;18.52;;;11.25;;
26181;SDS011;13927;51.534;11.866;2022-12-19T07:27:38;18.55;;;10.93;;
26181;SDS011;13927;51.534;11.866;2022-12-19T07:30:04;18.60;;;10.27;;
26181;SDS011;13927;51.534;11.866;2022-12-19T07:32:32;18.80;;;10.82;;
26181;SDS011;13927;51.534;11.866;2022-12-19T07:34:58;17.10;;;9.68;;
26181;SDS011;13927;51.534;11.866;2022-12-19T07:37:24;14.68;;;8.85;;
26181;SDS011;13927;51.534;11.866;2022-12-19T07:39:49;17.48;;;9.65;;
26181;SDS011;13927;51.534;11.866;2022-12-19T07:42:17;14.65;;;9.35;;
26181;SDS011;13927;51.534;11.866;2022-12-19T07:44:43;15.48;;;9.20;;
26181;SDS011;13927;51.534;11.866;2022-12-19T07:47:08;16.08;;;8.85;;
26181;SDS011;13927;51.534;11.866;2022-12-19T07:49:34;18.73;;;9.15;;
26181;SDS011;13927;51.534;11.866;2022-12-19T07:52:00;14.52;;;9.30;;
26181;SDS011;13927;51.534;11.866;2022-12-19T07:54:26;15.02;;;9.15;;
26181;SDS011;13927;51.534;11.866;2022-12-19T07:56:52;14.95;;;9.32;;
26181;SDS011;13927;51.534;11.866;2022-12-19T07:59:17;15.00;;;9.40;;
26181;SDS011;13927;51.534;11.866;2022-12-19T08:01:43;17.20;;;9.68;;
26181;SDS011;13927;51.534;11.866;2022-12-19T08:04:09;16.63;;;9.15;;
26181;SDS011;13927;51.534;11.866;2022-12-19T08:06:35;14.77;;;9.05;;
26181;SDS011;13927;51.534;11.866;2022-12-19T08:09:00;13.93;;;9.00;;
26181;SDS011;13927;51.534;11.866;2022-12-19T08:11:26;15.07;;;9.27;;
26181;SDS011;13927;51.534;11.866;2022-12-19T08:13:53;16.58;;;9.23;;
26181;SDS011;13927;51.534;11.866;2022-12-19T08:16:21;14.55;;;9.55;;
26181;SDS011;13927;51.534;11.866;2022-12-19T08:18:49;17.17;;;9.68;;
26181;SDS011;13927;51.534;11.866;2022-12-19T08:21:15;13.75;;;9.15;;
26181;SDS011;13927;51.534;11.866;2022-12-19T08:23:41;14.20;;;8.57;;
26181;SDS011;13927;51.534;11.866;2022-12-19T08:26:09;17.13;;;10.45;;
26181;SDS011;13927;51.534;11.866;2022-12-19T08:28:39;15.50;;;9.38;;
26181;SDS011;13927;51.534;11.866;2022-12-19T08:31:06;19.80;;;10.40;;
26181;SDS011;13927;51.534;11.866;2022-12-19T08:33:38;17.60;;;10.27;;
26181;SDS011;13927;51.534;11.866;2022-12-19T08:36:04;18.38;;;11.18;;
26181;SDS011;13927;51.534;11.866;2022-12-19T08:38:38;18.10;;;11.00;;
26181;SDS011;13927;51.534;11.866;2022-12-19T08:41:05;22.15;;;12.13;;
26181;SDS011;13927;51.534;11.866;2022-12-19T08:43:31;23.10;;;11.95;;
26181;SDS011;13927;51.534;11.866;2022-12-19T08:45:57;18.17;;;11.68;;
26181;SDS011;13927;51.534;11.866;2022-12-19T08:48:23;20.13;;;11.90;;
26181;SDS011;13927;51.534;11.866;2022-12-19T08:50:50;20.35;;;11.52;;
26181;SDS011;13927;51.534;11.866;2022-12-19T08:53:17;20.27;;;10.43;;
26181;SDS011;13927;51.534;11.866;2022-12-19T08:55:44;20.02;;;11.77;;
26181;SDS011;13927;51.534;11.866;2022-12-19T08:58:10;19.27;;;11.05;;
26181;SDS011;13927;51.534;11.866;2022-12-19T09:00:36;18.40;;;11.18;;
26181;SDS011;13927;51.534;11.866;2022-12-19T09:03:01;19.42;;;11.93;;
26181;SDS011;13927;51.534;11.866;2022-12-19T09:05:27;22.23;;;11.68;;
26181;SDS011;13927;51.534;11.866;2022-12-19T09:07:53;22.50;;;12.77;;
26181;SDS011;13927;51.534;11.866;2022-12-19T09:10:19;22.45;;;11.70;;
26181;SDS011;13927;51.534;11.866;2022-12-19T09:12:44;21.42;;;12.90;;
26181;SDS011;13927;51.534;11.866;2022-12-19T09:15:10;21.65;;;10.85;;
26181;SDS011;13927;51.534;11.866;2022-12-19T09:17:36;23.35;;;12.32;;
26181;SDS011;13927;51.534;11.866;2022-12-19T09:20:02;20.77;;;12.25;;
26181;SDS011;13927;51.534;11.866;2022-12-19T09:22:28;16.83;;;11.15;;
26181;SDS011;13927;51.534;11.866;2022-12-19T09:24:54;21.92;;;12.90;;
26181;SDS011;13927;51.534;11.866;2022-12-19T09:27:20;22.67;;;12.57;;
26181;SDS011;13927;51.534;11.866;2022-12-19T09:29:46;20.60;;;12.25;;
26181;SDS011;13927;51.534;11.866;2022-12-19T09:32:11;20.70;;;12.80;;
26181;SDS011;13927;51.534;11.866;2022-12-19T09:34:37;23.13;;;13.80;;
26181;SDS011;13927;51.534;11.866;2022-12-19T09:37:04;22.88;;;13.40;;
26181;SDS011;13927;51.534;11.866;2022-12-19T09:39:31;22.60;;;12.95;;
26181;SDS011;13927;51.534;11.866;2022-12-19T09:44:47;23.83;;;12.25;;
26181;SDS011;13927;51.534;11.866;2022-12-19T09:47:34;25.00;;;13.55;;
26181;SDS011;13927;51.534;11.866;2022-12-19T09:50:12;21.85;;;13.13;;
26181;SDS011;13927;51.534;11.866;2022-12-19T09:52:54;26.38;;;13.57;;
26181;SDS011;13927;51.534;11.866;2022-12-19T09:55:36;27.33;;;14.35;;
26181;SDS011;13927;51.534;11.866;2022-12-19T10:01:01;27.35;;;14.20;;
26181;SDS011;13927;51.534;11.866;2022-12-19T10:03:46;27.80;;;15.25;;
26181;SDS011;13927;51.534;11.866;2022-12-19T10:06:27;28.80;;;15.80;;
26181;SDS011;13927;51.534;11.866;2022-12-19T10:08:54;25.13;;;14.95;;
26181;SDS011;13927;51.534;11.866;2022-12-19T10:11:44;26.30;;;13.57;;
26181;SDS011;13927;51.534;11.866;2022-12-19T10:17:15;24.75;;;14.63;;
26181;SDS011;13927;51.534;11.866;2022-12-19T10:26:00;27.48;;;14.85;;
26181;SDS011;13927;51.534;11.866;2022-12-19T10:28:41;27.30;;;15.98;;
26181;SDS011;13927;51.534;11.866;2022-12-19T10:31:31;25.27;;;15.23;;
26181;SDS011;13927;51.534;11.866;2022-12-19T10:34:17;29.08;;;15.27;;
26181;SDS011;13927;51.534;11.866;2022-12-19T10:36:55;27.80;;;16.30;;
26181;SDS011;13927;51.534;11.866;2022-12-19T10:42:11;24.23;;;15.27;;
26181;SDS011;13927;51.534;11.866;2022-12-19T10:44:44;25.42;;;16.77;;
26181;SDS011;13927;51.534;11.866;2022-12-19T10:47:15;24.13;;;14.75;;
26181;SDS011;13927;51.534;11.866;2022-12-19T10:49:41;25.83;;;14.90;;
26181;SDS011;13927;51.534;11.866;2022-12-19T10:52:07;27.00;;;16.08;;
26181;SDS011;13927;51.534;11.866;2022-12-19T10:59:59;28.33;;;16.27;;
26181;SDS011;13927;51.534;11.866;2022-12-19T11:02:32;25.60;;;16.73;;
26181;SDS011;13927;51.534;11.866;2022-12-19T11:08:08;28.55;;;15.30;;
26181;SDS011;13927;51.534;11.866;2022-12-19T11:10:53;26.45;;;15.77;;
26181;SDS011;13927;51.534;11.866;2022-12-19T11:15:58;29.15;;;16.15;;
26181;SDS011;13927;51.534;11.866;2022-12-19T11:24:04;28.23;;;16.83;;
26181;SDS011;13927;51.534;11.866;2022-12-19T11:26:47;24.58;;;14.32;;
26181;SDS011;13927;51.534;11.866;2022-12-19T11:29:37;27.58;;;14.60;;
26181;SDS011;13927;51.534;11.866;2022-12-19T11:32:30;30.40;;;17.30;;
26181;SDS011;13927;51.534;11.866;2022-12-19T11:35:23;29.48;;;16.52;;
26181;SDS011;13927;51.534;11.866;2022-12-19T11:37:54;27.48;;;16.08;;
26181;SDS011;13927;51.534;11.866;2022-12-19T11:40:35;28.88;;;17.25;;
26181;SDS011;13927;51.534;11.866;2022-12-19T11:51:51;28.02;;;15.70;;
26181;SDS011;13927;51.534;11.866;2022-12-19T11:57:52;27.52;;;16.90;;
26181;SDS011;13927;51.534;11.866;2022-12-19T12:00:20;31.10;;;17.13;;
26181;SDS011;13927;51.534;11.866;2022-12-19T12:03:08;32.28;;;17.80;;
26181;SDS011;13927;51.534;11.866;2022-12-19T12:06:16;31.25;;;17.38;;
26181;SDS011;13927;51.534;11.866;2022-12-19T12:08:54;30.02;;;17.20;;
26181;SDS011;13927;51.534;11.866;2022-12-19T12:11:53;27.58;;;15.60;;
26181;SDS011;13927;51.534;11.866;2022-12-19T12:15:02;24.73;;;15.93;;
26181;SDS011;13927;51.534;11.866;2022-12-19T12:17:50;26.33;;;16.55;;
26181;SDS011;13927;51.534;11.866;2022-12-19T12:21:02;28.55;;;16.27;;
26181;SDS011;13927;51.534;11.866;2022-12-19T12:23:57;34.63;;;17.30;;
26181;SDS011;13927;51.534;11.866;2022-12-19T12:26:51;26.50;;;15.73;;
26181;SDS011;13927;51.534;11.866;2022-12-19T12:29:46;26.23;;;16.33;;
26181;SDS011;13927;51.534;11.866;2022-12-19T12:35:59;29.02;;;16.13;;
26181;SDS011;13927;51.534;11.866;2022-12-19T12:41:40;30.55;;;17.08;;
26181;SDS011;13927;51.534;11.866;2022-12-19T12:44:37;27.88;;;15.40;;
26181;SDS011;13927;51.534;11.866;2022-12-19T12:49:41;27.23;;;17.05;;
26181;SDS011;13927;51.534;11.866;2022-12-19T12:55:05;28.38;;;15.20;;
26181;SDS011;13927;51.534;11.866;2022-12-19T12:57:42;26.98;;;15.63;;
26181;SDS011;13927;51.534;11.866;2022-12-19T13:02:48;23.55;;;15.18;;
26181;SDS011;13927;51.534;11.866;2022-12-19T13:05:37;28.05;;;15.77;;
26181;SDS011;13927;51.534;11.866;2022-12-19T13:08:38;27.00;;;15.45;;
26181;SDS011;13927;51.534;11.866;2022-12-19T13:13:59;22.92;;;14.20;;
26181;SDS011;13927;51.534;11.866;2022-12-19T13:19:13;26.25;;;15.73;;
26181;SDS011;13927;51.534;11.866;2022-12-19T13:24:38;36.78;;;22.67;;
26181;SDS011;13927;51.534;11.866;2022-12-19T13:29:55;39.05;;;22.73;;
26181;SDS011;13927;51.534;11.866;2022-12-19T13:40:10;35.58;;;21.15;;
26181;SDS011;13927;51.534;11.866;2022-12-19T13:45:52;32.25;;;19.35;;
26181;SDS011;13927;51.534;11.866;2022-12-19T13:48:31;33.05;;;19.42;;
26181;SDS011;13927;51.534;11.866;2022-12-19T13:51:09;31.15;;;18.50;;
26181;SDS011;13927;51.534;11.866;2022-12-19T13:53:36;34.50;;;20.13;;
26181;SDS011;13927;51.534;11.866;2022-12-19T13:56:04;38.38;;;20.83;;
26181;SDS011;13927;51.534;11.866;2022-12-19T14:03:54;37.67;;;20.75;;
26181;SDS011;13927;51.534;11.866;2022-12-19T14:06:24;34.42;;;20.45;;
26181;SDS011;13927;51.534;11.866;2022-12-19T14:09:01;35.95;;;20.92;;
26181;SDS011;13927;51.534;11.866;2022-12-19T14:11:30;37.03;;;20.00;;
26181;SDS011;13927;51.534;11.866;2022-12-19T14:14:11;32.67;;;20.73;;
26181;SDS011;13927;51.534;11.866;2022-12-19T14:17:06;36.30;;;21.48;;
26181;SDS011;13927;51.534;11.866;2022-12-19T14:19:50;35.05;;;19.55;;
26181;SDS011;13927;51.534;11.866;2022-12-19T14:24:59;32.97;;;19.17;;
26181;SDS011;13927;51.534;11.866;2022-12-19T14:30:19;30.92;;;19.25;;
26181;SDS011;13927;51.534;11.866;2022-12-19T14:32:49;37.80;;;21.55;;
26181;SDS011;13927;51.534;11.866;2022-12-19T14:35:18;31.70;;;19.15;;
26181;SDS011;13927;51.534;11.866;2022-12-19T14:37:58;29.98;;;18.95;;
26181;SDS011;13927;51.534;11.866;2022-12-19T14:40:28;34.20;;;18.80;;
26181;SDS011;13927;51.534;11.866;2022-12-19T14:43:00;30.48;;;18.35;;
26181;SDS011;13927;51.534;11.866;2022-12-19T14:45:49;28.83;;;17.65;;
26181;SDS011;13927;51.534;11.866;2022-12-19T14:48:34;28.23;;;16.88;;
26181;SDS011;13927;51.534;11.866;2022-12-19T14:51:14;27.38;;;17.25;;
26181;SDS011;13927;51.534;11.866;2022-12-19T14:54:19;24.70;;;15.57;;
26181;SDS011;13927;51.534;11.866;2022-12-19T14:59:33;23.77;;;14.38;;
26181;SDS011;13927;51.534;11.866;2022-12-19T15:04:32;28.20;;;16.65;;
26181;SDS011;13927;51.534;11.866;2022-12-19T15:07:13;24.23;;;14.48;;
26181;SDS011;13927;51.534;11.866;2022-12-19T15:12:13;25.00;;;15.30;;
26181;SDS011;13927;51.534;11.866;2022-12-19T15:15:15;24.85;;;14.85;;
26181;SDS011;13927;51.534;11.866;2022-12-19T15:17:46;26.67;;;14.43;;
26181;SDS011;13927;51.534;11.866;2022-12-19T15:20:16;25.30;;;14.82;;
26181;SDS011;13927;51.534;11.866;2022-12-19T15:22:42;26.63;;;14.25;;
26181;SDS011;13927;51.534;11.866;2022-12-19T15:25:15;23.73;;;14.65;;
26181;SDS011;13927;51.534;11.866;2022-12-19T15:27:43;25.65;;;15.10;;
26181;SDS011;13927;51.534;11.866;2022-12-19T15:30:14;26.60;;;15.48;;
26181;SDS011;13927;51.534;11.866;2022-12-19T15:32:45;26.58;;;15.25;;
26181;SDS011;13927;51.534;11.866;2022-12-19T15:35:12;24.30;;;16.20;;
26181;SDS011;13927;51.534;11.866;2022-12-19T15:37:41;24.88;;;15.52;;
26181;SDS011;13927;51.534;11.866;2022-12-19T15:40:12;28.35;;;18.73;;
26181;SDS011;13927;51.534;11.866;2022-12-19T15:42:41;26.80;;;19.02;;
26181;SDS011;13927;51.534;11.866;2022-12-19T15:45:15;30.05;;;18.88;;
26181;SDS011;13927;51.534;11.866;2022-12-19T15:47:43;33.95;;;21.08;;
26181;SDS011;13927;51.534;11.866;2022-12-19T15:50:22;31.88;;;19.67;;
26181;SDS011;13927;51.534;11.866;2022-12-19T15:52:55;30.13;;;19.08;;
26181;SDS011;13927;51.534;11.866;2022-12-19T15:55:24;28.70;;;18.38;;
26181;SDS011;13927;51.534;11.866;2022-12-19T15:57:57;31.13;;;19.35;;
26181;SDS011;13927;51.534;11.866;2022-12-19T16:00:26;32.63;;;19.45;;
26181;SDS011;13927;51.534;11.866;2022-12-19T16:02:57;29.45;;;18.52;;
26181;SDS011;13927;51.534;11.866;2022-12-19T16:05:23;32.08;;;19.17;;
26181;SDS011;13927;51.534;11.866;2022-12-19T16:07:49;31.52;;;19.40;;
26181;SDS011;13927;51.534;11.866;2022-12-19T16:10:16;33.60;;;20.35;;
26181;SDS011;13927;51.534;11.866;2022-12-19T16:12:43;32.42;;;19.38;;
26181;SDS011;13927;51.534;11.866;2022-12-19T16:15:18;31.45;;;20.05;;
26181;SDS011;13927;51.534;11.866;2022-12-19T16:17:51;31.15;;;19.88;;
26181;SDS011;13927;51.534;11.866;2022-12-19T16:20:36;34.13;;;20.95;;
26181;SDS011;13927;51.534;11.866;2022-12-19T16:23:03;33.38;;;21.13;;
26181;SDS011;13927;51.534;11.866;2022-12-19T16:25:39;32.65;;;20.00;;
26181;SDS011;13927;51.534;11.866;2022-12-19T16:28:14;31.50;;;19.23;;
26181;SDS011;13927;51.534;11.866;2022-12-19T16:30:47;42.65;;;24.92;;
26181;SDS011;13927;51.534;11.866;2022-12-19T16:33:18;44.25;;;23.48;;
26181;SDS011;13927;51.534;11.866;2022-12-19T16:35:52;39.65;;;22.13;;
26181;SDS011;13927;51.534;11.866;2022-12-19T16:38:19;37.47;;;22.42;;
26181;SDS011;13927;51.534;11.866;2022-12-19T16:40:45;38.30;;;20.15;;
26181;SDS011;13927;51.534;11.866;2022-12-19T16:43:31;36.05;;;20.88;;
26181;SDS011;13927;51.534;11.866;2022-12-19T16:46:01;44.72;;;27.13;;
26181;SDS011;13927;51.534;11.866;2022-12-19T16:48:30;69.93;;;41.72;;
26181;SDS011;13927;51.534;11.866;2022-12-19T16:50:59;47.90;;;29.27;;